Terminal Aerodrome Forecast
Issued by NWS

Home | Current Version | Previous Version | Text Only | Print | Product List | Glossary On
Versions: 1 2 3 4 5 6 7 8 9 10 11 12 13 14 15 16 17 18
000
FTUS46 KSEW 172321
TAFPAE
TAF
KPAE 172321Z 1800/1824 VRB05KT P6SM SCT040 SCT100 SCT200
     FM180300 18006KT P6SM SCT100 SCT200
     FM181200 14010KT P6SM BKN040 OVC100
     FM181600 15012KT P6SM VCSH BKN030 OVC050
     FM181800 16018G30KT P6SM -RA OVC030
     FM182100 18025G35KT P6SM -RA OVC025=

USA.gov is the U.S. government's official web portal to all federal, state and local government web resources and services.